Time;durP1;ratioP1;P1;durP2;ratioP2;P2;SDS_P1;SDS_P2;PMS_P1;PMS_P2;Temp;Humidity;BMP_temperature;BMP_pressure;BME280_temperature;BME280_humidity;BME280_pressure;Samples;Min_cycle;Max_cycle;Signal;HPM_P1;HPM_P2
2022/02/21 00:00:55;;;;;;;4.35;1.75;;;7.20;76.60;;;;;;5015700;28;20583;-91
2022/02/21 00:03:21;;;;;;;7.50;2.10;;;7.30;76.20;;;;;;5015400;28;20315;-91
2022/02/21 00:05:48;;;;;;;10.05;1.80;;;7.30;75.80;;;;;;5016007;28;20217;-90
2022/02/21 00:08:15;;;;;;;7.60;1.85;;;7.30;74.90;;;;;;5014999;28;20178;-90
2022/02/21 00:10:41;;;;;;;10.50;2.58;;;7.40;73.10;;;;;;5014972;28;20206;-89
2022/02/21 00:13:06;;;;;;;9.30;2.35;;;7.50;72.40;;;;;;5012222;28;20257;-91
2022/02/21 00:15:32;;;;;;;6.10;1.60;;;7.40;71.10;;;;;;5013900;28;20284;-91
2022/02/21 00:17:58;;;;;;;9.83;2.57;;;7.40;69.80;;;;;;5016185;28;20185;-91
2022/02/21 00:20:24;;;;;;;4.13;2.03;;;7.40;68.40;;;;;;5015173;28;20184;-91
2022/02/21 00:22:50;;;;;;;10.15;1.50;;;7.40;67.40;;;;;;5014825;28;20486;-90
2022/02/21 00:25:16;;;;;;;5.60;1.70;;;7.40;67.20;;;;;;5015553;28;20233;-90
2022/02/21 00:27:41;;;;;;;5.03;1.23;;;7.50;67.90;;;;;;5015268;28;20184;-90
2022/02/21 00:30:09;;;;;;;8.80;1.60;;;7.50;68.00;;;;;;5033650;28;20685;-91
2022/02/21 00:32:39;;;;;;;8.50;1.77;;;7.50;68.80;;;;;;5014741;28;21059;-91
2022/02/21 00:35:08;;;;;;;8.63;2.00;;;7.60;69.10;;;;;;5032754;28;20617;-91
2022/02/21 00:37:34;;;;;;;4.40;1.40;;;7.60;69.10;;;;;;5018729;28;20178;-91
2022/02/21 00:40:00;;;;;;;8.13;3.63;;;7.50;69.20;;;;;;5020417;28;20276;-91
2022/02/21 00:42:26;;;;;;;6.75;1.75;;;7.50;69.70;;;;;;5020949;28;20943;-91
2022/02/21 00:44:57;;;;;;;8.60;1.50;;;7.50;70.10;;;;;;5022320;28;20257;-91
2022/02/21 00:47:24;;;;;;;7.18;1.50;;;7.50;70.60;;;;;;5008393;28;20912;-91
2022/02/21 00:49:51;;;;;;;6.57;1.55;;;7.50;72.20;;;;;;5023099;28;20178;-91
2022/02/21 00:52:17;;;;;;;10.32;2.17;;;7.50;71.80;;;;;;5016261;28;20191;-91
2022/02/21 00:54:43;;;;;;;10.52;1.30;;;7.60;72.30;;;;;;5018784;28;20277;-90
2022/02/21 00:57:08;;;;;;;9.63;1.83;;;7.50;72.50;;;;;;5019203;28;20178;-90
2022/02/21 00:59:34;;;;;;;4.60;1.50;;;7.40;72.90;;;;;;5019143;28;20184;-90
2022/02/21 01:02:00;;;;;;;4.10;1.50;;;7.30;73.70;;;;;;5020931;28;20484;-89
2022/02/21 01:04:26;;;;;;;8.43;1.40;;;7.40;74.70;;;;;;5020210;28;20317;-90
2022/02/21 01:06:52;;;;;;;3.70;1.47;;;7.40;75.20;;;;;;5044421;28;20992;-90
2022/02/21 01:09:17;;;;;;;11.67;2.10;;;7.40;75.50;;;;;;5019424;28;20220;-90
2022/02/21 01:11:43;;;;;;;12.67;2.30;;;7.60;75.30;;;;;;5036215;28;20646;-90
2022/02/21 01:14:20;;;;;;;6.23;1.90;;;7.60;75.20;;;;;;5018150;28;20731;-88
2022/02/21 01:16:46;;;;;;;11.95;2.60;;;7.50;75.10;;;;;;5018843;28;20216;-90
2022/02/21 01:19:11;;;;;;;13.73;2.20;;;7.60;75.00;;;;;;5018245;28;20193;-90
2022/02/21 01:21:37;;;;;;;14.90;2.57;;;7.50;74.50;;;;;;5018944;28;20634;-90
2022/02/21 01:24:03;;;;;;;16.47;2.60;;;7.50;74.50;;;;;;5017539;28;20198;-90
2022/02/21 01:26:29;;;;;;;13.93;2.05;;;7.60;73.90;;;;;;5017951;28;20983;-90
2022/02/21 01:28:55;;;;;;;9.70;2.67;;;7.50;73.30;;;;;;5017989;28;20270;-90
2022/02/21 01:31:21;;;;;;;8.43;2.30;;;7.40;72.50;;;;;;5018103;28;20745;-90
2022/02/21 01:33:46;;;;;;;17.83;2.80;;;7.40;72.40;;;;;;5019403;28;20198;-91
2022/02/21 01:36:12;;;;;;;17.33;2.00;;;7.50;71.10;;;;;;5021641;28;20424;-90
2022/02/21 01:38:38;;;;;;;9.07;2.07;;;7.50;70.90;;;;;;5018519;28;20181;-91
2022/02/21 01:41:07;;;;;;;9.25;2.85;;;7.40;70.10;;;;;;5019441;28;20216;-90
2022/02/21 01:43:33;;;;;;;5.57;1.85;;;7.40;68.80;;;;;;5017349;28;20205;-90
2022/02/21 01:45:59;;;;;;;9.85;3.30;;;7.40;68.40;;;;;;5017843;28;20701;-91
2022/02/21 01:48:25;;;;;;;7.60;1.73;;;7.30;67.50;;;;;;5016582;28;20182;-91
2022/02/21 01:50:51;;;;;;;12.27;1.90;;;7.30;67.10;;;;;;5019169;28;20174;-89
2022/02/21 01:53:18;;;;;;;9.90;1.92;;;7.30;65.80;;;;;;5029740;28;20420;-91
2022/02/21 01:55:44;;;;;;;6.72;2.13;;;7.30;65.20;;;;;;5017388;28;20216;-89
2022/02/21 01:58:10;;;;;;;23.77;2.20;;;7.20;64.40;;;;;;5017955;28;20650;-89
2022/02/21 02:00:37;;;;;;;8.73;2.15;;;7.30;64.40;;;;;;5017841;28;20217;-89
2022/02/21 02:03:03;;;;;;;4.38;1.80;;;7.20;64.00;;;;;;5018008;28;20174;-89
2022/02/21 02:05:29;;;;;;;10.03;1.70;;;7.30;63.50;;;;;;5025989;28;20217;-89
2022/02/21 02:07:55;;;;;;;5.95;1.73;;;7.40;64.30;;;;;;5029302;28;20780;-89
2022/02/21 02:10:22;;;;;;;24.27;2.60;;;7.40;65.30;;;;;;5018754;28;20182;-91
2022/02/21 02:12:47;;;;;;;9.95;2.58;;;7.40;65.10;;;;;;5017147;28;20412;-90
2022/02/21 02:15:16;;;;;;;8.90;1.90;;;7.50;65.20;;;;;;5034776;28;20557;-91
2022/02/21 02:17:42;;;;;;;14.85;2.08;;;7.50;65.70;;;;;;5034773;28;20190;-91
2022/02/21 02:20:09;;;;;;;5.72;1.77;;;7.50;65.80;;;;;;5017489;28;20217;-91
2022/02/21 02:22:44;;;;;;;9.02;2.20;;;7.50;65.40;;;;;;5016568;28;20676;-91
2022/02/21 02:25:10;;;;;;;9.88;1.98;;;7.40;64.90;;;;;;5017951;28;20224;-91
2022/02/21 02:27:38;;;;;;;7.67;2.13;;;7.40;64.50;;;;;;5018610;28;20170;-91
2022/02/21 02:30:05;;;;;;;9.52;1.85;;;7.40;64.90;;;;;;5022233;28;20239;-91
2022/02/21 02:32:31;;;;;;;7.93;2.55;;;7.40;64.50;;;;;;5034762;28;20258;-92
2022/02/21 02:34:57;;;;;;;5.15;2.20;;;7.40;63.90;;;;;;5040705;28;20285;-92
2022/02/21 02:37:24;;;;;;;14.70;2.30;;;7.40;64.10;;;;;;5031619;28;20194;-89
2022/02/21 02:39:51;;;;;;;15.18;2.75;;;7.50;64.80;;;;;;5018885;28;20436;-91
2022/02/21 02:42:17;;;;;;;5.10;1.83;;;7.50;64.60;;;;;;5026871;28;20213;-89
2022/02/21 02:44:43;;;;;;;10.23;2.15;;;7.50;63.40;;;;;;5033344;28;20198;-88
2022/02/21 02:47:11;;;;;;;9.80;2.10;;;7.60;63.20;;;;;;5017777;28;20212;-88
2022/02/21 02:49:37;;;;;;;13.55;3.22;;;7.60;63.90;;;;;;5036282;28;20424;-89
2022/02/21 02:52:04;;;;;;;6.88;2.10;;;7.50;63.20;;;;;;5023816;28;20182;-88
2022/02/21 02:54:30;;;;;;;13.55;2.65;;;7.40;62.40;;;;;;5027878;28;20217;-88
2022/02/21 02:56:56;;;;;;;10.63;2.85;;;7.50;62.90;;;;;;5034624;28;20202;-89
2022/02/21 02:59:25;;;;;;;10.63;3.43;;;7.30;62.30;;;;;;5025425;28;20209;-88
2022/02/21 03:01:52;;;;;;;6.05;2.13;;;7.40;62.00;;;;;;5002124;28;20722;-88
2022/02/21 03:04:18;;;;;;;12.23;2.28;;;7.30;61.50;;;;;;5034743;28;20763;-89
2022/02/21 03:06:44;;;;;;;6.57;3.35;;;7.40;62.20;;;;;;5017044;28;20197;-88
2022/02/21 03:09:15;;;;;;;8.60;3.00;;;7.40;61.90;;;;;;5018757;28;20742;-88
2022/02/21 03:11:43;;;;;;;11.07;2.38;;;7.30;61.60;;;;;;5017344;28;20182;-89
2022/02/21 03:14:10;;;;;;;17.67;2.60;;;7.30;61.00;;;;;;5017411;28;20213;-88
2022/02/21 03:16:36;;;;;;;7.30;1.90;;;7.40;61.00;;;;;;5017053;28;20545;-88
2022/02/21 03:19:02;;;;;;;5.93;2.10;;;7.40;61.00;;;;;;5016880;28;20204;-91
2022/02/21 03:21:28;;;;;;;10.33;2.77;;;7.40;61.00;;;;;;5018815;28;20178;-88
2022/02/21 03:23:53;;;;;;;6.87;2.00;;;7.40;60.80;;;;;;5017439;28;20205;-89
2022/02/21 03:26:19;;;;;;;7.70;2.30;;;7.30;60.60;;;;;;5017403;28;20205;-88
2022/02/21 03:28:45;;;;;;;13.63;2.07;;;7.30;60.90;;;;;;5017088;28;20428;-88
2022/02/21 03:31:12;;;;;;;14.40;2.33;;;7.30;60.60;;;;;;5017039;28;20643;-88
2022/02/21 03:33:38;;;;;;;7.30;1.90;;;7.40;61.40;;;;;;5017133;28;20688;-89
2022/02/21 03:36:09;;;;;;;12.30;2.60;;;7.40;61.00;;;;;;5035212;28;20170;-89
2022/02/21 03:38:35;;;;;;;6.22;1.85;;;7.60;61.30;;;;;;5016673;28;20452;-88
2022/02/21 03:41:01;;;;;;;9.23;2.00;;;7.40;60.80;;;;;;5017489;28;20241;-88
2022/02/21 03:43:26;;;;;;;9.57;2.53;;;7.30;61.30;;;;;;5034299;28;20207;-88
2022/02/21 03:45:52;;;;;;;8.27;2.13;;;7.30;61.50;;;;;;5016339;28;20205;-88
2022/02/21 03:48:18;;;;;;;10.73;2.33;;;7.40;61.10;;;;;;5034614;28;20300;-89
2022/02/21 03:50:44;;;;;;;9.40;2.83;;;7.30;61.00;;;;;;5016121;28;20467;-89
2022/02/21 03:53:10;;;;;;;11.10;2.30;;;7.20;61.20;;;;;;5019115;28;20252;-89
2022/02/21 03:55:35;;;;;;;14.73;2.53;;;7.30;61.80;;;;;;5030203;28;20456;-88
2022/02/21 03:58:01;;;;;;;8.73;2.10;;;7.20;61.40;;;;;;5016615;28;20928;-88
2022/02/21 04:00:27;;;;;;;12.80;4.03;;;7.20;61.50;;;;;;5016594;28;20260;-89
2022/02/21 04:02:53;;;;;;;10.00;2.40;;;7.30;61.60;;;;;;5016119;28;21015;-88
2022/02/21 04:05:19;;;;;;;10.98;2.30;;;7.30;61.70;;;;;;5016162;28;20220;-89
2022/02/21 04:07:45;;;;;;;6.90;2.67;;;7.30;61.80;;;;;;5020951;28;20181;-89
2022/02/21 04:10:12;;;;;;;6.80;1.97;;;7.40;61.80;;;;;;5031478;28;20510;-89
2022/02/21 04:12:39;;;;;;;12.88;3.00;;;7.40;61.60;;;;;;5015989;28;20412;-89
2022/02/21 04:15:08;;;;;;;17.30;4.05;;;7.30;61.60;;;;;;5015405;28;20193;-89
2022/02/21 04:17:45;;;;;;;16.05;2.40;;;7.20;62.00;;;;;;5021286;28;20194;-89
2022/02/21 04:20:14;;;;;;;13.77;2.90;;;7.20;62.50;;;;;;5018478;28;20182;-89
2022/02/21 04:22:40;;;;;;;11.38;3.70;;;7.20;62.80;;;;;;5015187;28;20193;-89
2022/02/21 04:25:09;;;;;;;7.07;3.00;;;7.20;63.10;;;;;;5015652;28;20217;-91
2022/02/21 04:27:47;;;;;;;9.93;3.25;;;7.10;62.80;;;;;;5015312;28;20601;-92
2022/02/21 04:30:15;;;;;;;17.85;2.70;;;7.20;62.70;;;;;;5039670;28;20174;-89
2022/02/21 04:32:43;;;;;;;15.50;3.25;;;7.10;62.40;;;;;;5016019;28;20626;-90
2022/02/21 04:35:13;;;;;;;4.97;2.47;;;7.10;62.30;;;;;;5017510;28;20274;-90
2022/02/21 04:37:39;;;;;;;15.30;2.75;;;7.10;61.90;;;;;;5038144;28;20166;-89
2022/02/21 04:40:07;;;;;;;12.82;3.20;;;7.10;62.10;;;;;;5019925;28;20257;-90
2022/02/21 04:42:34;;;;;;;12.40;2.53;;;7.20;62.00;;;;;;5034822;28;20186;-90
2022/02/21 04:45:00;;;;;;;19.10;2.60;;;7.20;62.00;;;;;;5033774;28;22136;-89
2022/02/21 04:47:26;;;;;;;11.70;2.03;;;7.20;62.00;;;;;;5053019;28;20456;-89
2022/02/21 04:49:52;;;;;;;10.67;1.90;;;7.20;61.60;;;;;;5037710;28;20182;-89
2022/02/21 04:52:18;;;;;;;14.97;3.00;;;7.10;61.20;;;;;;5026265;28;20975;-89
2022/02/21 04:54:44;;;;;;;9.32;2.30;;;7.20;61.60;;;;;;5016231;28;20872;-88
2022/02/21 04:57:09;;;;;;;13.45;3.55;;;7.10;61.40;;;;;;5016866;28;20235;-89
2022/02/21 04:59:35;;;;;;;6.07;2.70;;;7.20;61.80;;;;;;5033552;28;20181;-89
2022/02/21 05:02:01;;;;;;;7.90;2.60;;;7.20;61.40;;;;;;5016926;28;20189;-89
2022/02/21 05:04:27;;;;;;;6.78;1.92;;;7.20;61.20;;;;;;5016285;28;20547;-89
2022/02/21 05:06:53;;;;;;;8.65;4.43;;;7.20;61.00;;;;;;5025703;28;20217;-90
2022/02/21 05:09:19;;;;;;;16.83;3.07;;;7.20;60.90;;;;;;5041618;28;20178;-89
2022/02/21 05:11:45;;;;;;;7.87;3.10;;;7.30;60.40;;;;;;5020016;28;20421;-89
2022/02/21 05:14:10;;;;;;;9.37;2.47;;;7.20;60.50;;;;;;5032638;28;20243;-92
2022/02/21 05:16:36;;;;;;;9.87;2.73;;;7.20;60.20;;;;;;5015452;28;20420;-89
2022/02/21 05:19:02;;;;;;;8.10;1.30;;;7.20;60.20;;;;;;5034798;28;20811;-89
2022/02/21 05:21:31;;;;;;;11.20;2.67;;;7.20;60.30;;;;;;5036775;28;20189;-92
2022/02/21 05:23:58;;;;;;;8.52;2.05;;;7.20;60.20;;;;;;5039173;28;20467;-90
2022/02/21 05:26:25;;;;;;;11.27;2.10;;;7.30;60.00;;;;;;5041425;28;20276;-89
2022/02/21 05:28:52;;;;;;;4.40;2.30;;;7.30;60.10;;;;;;5022712;28;20182;-89
2022/02/21 05:31:19;;;;;;;13.60;2.45;;;7.30;59.90;;;;;;5018687;28;20654;-89
2022/02/21 05:33:44;;;;;;;9.88;2.30;;;7.10;59.50;;;;;;5018022;28;20208;-89
2022/02/21 05:36:10;;;;;;;9.37;2.30;;;7.10;60.10;;;;;;5018334;28;20558;-89
2022/02/21 05:38:37;;;;;;;13.20;2.30;;;7.20;60.40;;;;;;5018210;28;20174;-90
2022/02/21 05:41:05;;;;;;;13.77;2.40;;;7.20;60.80;;;;;;5019744;28;20417;-89
2022/02/21 05:43:30;;;;;;;9.93;2.40;;;7.10;60.80;;;;;;5003519;28;20173;-89
2022/02/21 05:45:56;;;;;;;4.87;2.47;;;7.20;61.30;;;;;;5022525;28;20225;-89
2022/02/21 05:48:24;;;;;;;11.63;2.03;;;7.00;61.80;;;;;;5022611;28;20208;-89
2022/02/21 05:50:50;;;;;;;8.00;2.83;;;7.10;62.80;;;;;;5020854;28;20543;-89
2022/02/21 05:53:16;;;;;;;15.00;2.43;;;7.00;63.10;;;;;;5023573;28;20170;-88
2022/02/21 05:55:41;;;;;;;6.20;2.40;;;7.00;63.90;;;;;;5020850;28;20186;-88
2022/02/21 05:58:08;;;;;;;15.47;1.80;;;6.90;64.80;;;;;;5018285;28;20184;-89
2022/02/21 06:00:34;;;;;;;15.02;2.10;;;6.80;64.10;;;;;;5018899;28;20201;-88
2022/02/21 06:03:01;;;;;;;10.47;2.00;;;6.80;64.50;;;;;;5018004;28;20666;-89
2022/02/21 06:05:28;;;;;;;9.18;1.50;;;7.00;64.80;;;;;;5021113;28;20292;-89
2022/02/21 06:07:57;;;;;;;8.93;2.15;;;6.90;65.50;;;;;;5018390;28;20173;-89
2022/02/21 06:10:23;;;;;;;10.80;2.13;;;6.80;64.80;;;;;;5035294;28;20519;-88
2022/02/21 06:12:49;;;;;;;13.13;2.30;;;6.70;65.00;;;;;;5017847;28;20178;-89
2022/02/21 06:15:14;;;;;;;6.30;2.03;;;6.70;65.50;;;;;;5035421;28;20452;-89
2022/02/21 06:17:50;;;;;;;10.43;2.00;;;6.70;66.00;;;;;;5017311;28;20251;-89
2022/02/21 06:20:16;;;;;;;7.40;2.00;;;6.70;66.40;;;;;;5017821;28;20231;-89
2022/02/21 06:22:42;;;;;;;11.63;2.47;;;6.70;67.00;;;;;;5017604;28;20174;-89
2022/02/21 06:25:08;;;;;;;11.40;2.00;;;6.70;67.10;;;;;;5017895;28;20326;-89
2022/02/21 06:27:35;;;;;;;2.20;1.13;;;6.70;67.70;;;;;;4996553;28;20178;-88
2022/02/21 06:30:01;;;;;;;7.57;1.90;;;6.60;68.00;;;;;;5037034;28;20189;-89
2022/02/21 06:32:26;;;;;;;7.80;2.07;;;6.50;68.10;;;;;;5036750;28;20514;-89
2022/02/21 06:34:52;;;;;;;7.30;2.43;;;6.60;68.70;;;;;;5020989;28;20675;-90
2022/02/21 06:37:19;;;;;;;6.18;1.40;;;6.60;68.90;;;;;;5025764;28;20178;-88
2022/02/21 06:39:45;;;;;;;6.97;2.13;;;6.50;69.00;;;;;;5021912;28;20192;-89
2022/02/21 06:42:11;;;;;;;4.18;2.15;;;6.30;69.50;;;;;;5030211;28;20371;-89
2022/02/21 06:44:37;;;;;;;9.57;1.80;;;6.40;69.90;;;;;;5028691;28;20554;-88
2022/02/21 06:47:03;;;;;;;8.83;2.07;;;6.30;70.00;;;;;;5002407;28;20567;-89
2022/02/21 06:49:29;;;;;;;4.05;1.65;;;6.30;70.10;;;;;;5015517;28;20429;-91
2022/02/21 06:51:58;;;;;;;4.00;2.03;;;6.30;70.40;;;;;;5016012;28;20664;-89
2022/02/21 06:54:23;;;;;;;11.63;2.40;;;6.30;70.40;;;;;;5015743;28;21206;-89
2022/02/21 06:56:49;;;;;;;11.67;3.10;;;6.20;70.30;;;;;;5011769;28;20193;-89
2022/02/21 06:59:18;;;;;;;7.53;2.30;;;6.20;70.40;;;;;;5015924;28;20513;-89
2022/02/21 07:01:44;;;;;;;11.43;2.00;;;6.10;70.50;;;;;;5017173;28;20444;-89
2022/02/21 07:04:10;;;;;;;9.23;2.07;;;6.20;70.70;;;;;;5016122;28;20233;-90
2022/02/21 07:06:36;;;;;;;3.80;1.80;;;6.30;72.70;;;;;;5029957;28;21408;-89
2022/02/21 07:09:03;;;;;;;8.05;2.53;;;7.10;83.00;;;;;;5046368;28;20193;-89
2022/02/21 07:11:29;;;;;;;12.60;2.83;;;7.60;83.50;;;;;;5001051;28;20190;-89
2022/02/21 07:13:54;;;;;;;9.67;2.53;;;8.00;81.80;;;;;;5045810;28;20225;-89
2022/02/21 07:16:20;;;;;;;6.87;2.00;;;8.30;79.90;;;;;;5036647;28;20455;-89
2022/02/21 07:18:46;;;;;;;4.07;1.70;;;8.80;77.70;;;;;;5018654;28;20224;-90
2022/02/21 07:21:11;;;;;;;10.37;2.47;;;9.10;75.80;;;;;;5019082;28;20178;-89
2022/02/21 07:23:43;;;;;;;4.83;1.80;;;9.00;69.40;;;;;;5034732;28;20198;-89
2022/02/21 07:26:12;;;;;;;9.57;1.88;;;8.80;69.10;;;;;;4999797;28;20692;-90
2022/02/21 07:28:38;;;;;;;7.40;2.00;;;9.10;70.90;;;;;;5016475;28;20185;-89
2022/02/21 07:31:06;;;;;;;4.88;2.03;;;9.10;69.20;;;;;;5017575;28;20174;-87
2022/02/21 07:33:33;;;;;;;3.70;1.88;;;9.30;68.60;;;;;;5017089;28;20213;-87
2022/02/21 07:35:58;;;;;;;6.32;1.95;;;9.10;65.60;;;;;;5016337;28;20238;-89
2022/02/21 07:38:24;;;;;;;4.60;1.60;;;9.40;68.20;;;;;;5015582;28;20259;-89
2022/02/21 07:40:51;;;;;;;10.37;2.00;;;9.40;66.70;;;;;;5019110;28;20178;-89
2022/02/21 07:43:17;;;;;;;7.22;1.75;;;9.60;66.30;;;;;;5027238;23;20492;-86
2022/02/21 07:45:43;;;;;;;5.47;1.43;;;9.50;63.70;;;;;;5008441;28;20259;-87
2022/02/21 07:48:08;;;;;;;10.27;2.47;;;9.50;64.60;;;;;;5036531;28;20201;-86
2022/02/21 07:50:35;;;;;;;3.20;1.90;;;9.50;64.70;;;;;;5020100;28;20205;-85
2022/02/21 07:53:03;;;;;;;3.00;1.80;;;9.60;65.50;;;;;;5012095;28;20201;-86
2022/02/21 07:55:29;;;;;;;13.88;2.28;;;9.60;65.60;;;;;;4997417;28;20194;-86
2022/02/21 07:57:57;;;;;;;9.73;1.80;;;9.50;64.00;;;;;;4997369;28;20193;-86
2022/02/21 08:00:23;;;;;;;3.95;1.63;;;9.50;62.20;;;;;;4997620;28;20187;-86
2022/02/21 08:02:50;;;;;;;9.27;1.98;;;9.50;64.10;;;;;;4997082;28;20199;-86
2022/02/21 08:05:16;;;;;;;5.95;2.00;;;9.80;64.70;;;;;;4996856;28;20826;-85
2022/02/21 08:07:42;;;;;;;4.43;1.33;;;9.70;60.20;;;;;;4998024;28;20185;-86
2022/02/21 08:10:09;;;;;;;10.48;1.90;;;9.90;62.10;;;;;;5015863;28;20641;-85
2022/02/21 08:12:35;;;;;;;9.73;1.80;;;10.00;61.80;;;;;;5018230;28;20198;-86
2022/02/21 08:15:01;;;;;;;6.57;2.35;;;10.30;61.30;;;;;;4997393;28;20265;-86
2022/02/21 08:17:26;;;;;;;5.85;1.90;;;10.10;60.20;;;;;;4997506;28;20194;-86
2022/02/21 08:19:53;;;;;;;12.87;2.17;;;10.00;60.70;;;;;;4997371;28;20171;-86
2022/02/21 08:22:19;;;;;;;8.57;2.40;;;10.10;60.50;;;;;;4997880;28;20221;-86
2022/02/21 08:24:45;;;;;;;8.10;2.00;;;9.80;59.60;;;;;;4997627;28;20186;-86
2022/02/21 08:27:10;;;;;;;11.60;3.40;;;9.80;60.70;;;;;;4997598;28;20468;-86
2022/02/21 08:29:37;;;;;;;6.53;2.43;;;9.70;59.80;;;;;;5014531;28;20181;-86
2022/02/21 08:32:03;;;;;;;10.30;1.88;;;9.50;60.10;;;;;;4997105;28;20210;-86
2022/02/21 08:34:30;;;;;;;7.10;1.85;;;9.40;60.40;;;;;;5005301;28;20265;-85
2022/02/21 08:36:56;;;;;;;7.55;1.95;;;9.60;62.10;;;;;;5019110;28;20182;-85
2022/02/21 08:39:22;;;;;;;10.60;2.20;;;9.70;61.10;;;;;;5017974;28;20229;-85
2022/02/21 08:41:47;;;;;;;5.20;1.70;;;9.50;61.70;;;;;;5017879;28;20940;-85
2022/02/21 08:44:13;;;;;;;13.73;2.73;;;9.40;61.90;;;;;;5016913;28;20213;-86
2022/02/21 08:46:39;;;;;;;8.63;2.00;;;9.20;61.90;;;;;;5018326;28;20204;-85
2022/02/21 08:49:05;;;;;;;9.70;2.30;;;9.30;64.10;;;;;;5017506;28;20923;-86
2022/02/21 08:51:32;;;;;;;11.43;2.25;;;9.40;63.70;;;;;;5015408;28;20181;-85
2022/02/21 08:53:57;;;;;;;9.00;1.75;;;9.40;63.40;;;;;;5022917;28;20202;-85
2022/02/21 08:56:24;;;;;;;13.93;2.80;;;9.70;63.00;;;;;;5004025;28;20677;-85
2022/02/21 08:58:49;;;;;;;3.80;2.00;;;9.40;62.50;;;;;;5000753;28;20197;-86
2022/02/21 09:01:15;;;;;;;9.63;1.93;;;9.50;63.00;;;;;;5001246;28;20182;-85
2022/02/21 09:03:41;;;;;;;4.43;2.13;;;9.50;64.00;;;;;;5000325;28;20202;-86
2022/02/21 09:06:08;;;;;;;10.63;2.27;;;9.60;63.60;;;;;;5001598;28;20776;-86
2022/02/21 09:08:34;;;;;;;10.80;2.58;;;9.60;63.70;;;;;;5004526;28;20609;-86
2022/02/21 09:11:02;;;;;;;6.90;2.20;;;9.80;63.80;;;;;;5004980;28;20187;-85
2022/02/21 09:13:28;;;;;;;7.80;2.20;;;9.60;62.80;;;;;;5004985;28;20425;-85
2022/02/21 09:15:53;;;;;;;7.07;2.65;;;9.60;63.70;;;;;;5006488;28;20193;-85
2022/02/21 09:18:19;;;;;;;10.70;3.73;;;9.70;63.80;;;;;;5023793;28;20174;-85
2022/02/21 09:20:46;;;;;;;7.93;1.98;;;9.80;63.50;;;;;;5005972;28;20175;-86
2022/02/21 09:23:11;;;;;;;11.00;2.63;;;9.70;63.30;;;;;;5005628;28;20198;-86
2022/02/21 09:25:37;;;;;;;8.37;2.43;;;9.80;63.30;;;;;;5022328;28;20194;-87
2022/02/21 09:28:03;;;;;;;9.90;3.10;;;9.60;63.00;;;;;;5004382;28;20170;-86
2022/02/21 09:30:29;;;;;;;15.50;3.90;;;9.80;63.80;;;;;;5002879;28;20421;-85
2022/02/21 09:32:55;;;;;;;13.50;3.37;;;9.70;61.60;;;;;;5004012;28;20202;-86
2022/02/21 09:35:23;;;;;;;17.10;3.50;;;9.50;61.40;;;;;;5013059;28;20182;-86
2022/02/21 09:37:50;;;;;;;8.65;1.98;;;9.30;61.40;;;;;;5036379;28;20253;-85
2022/02/21 09:40:17;;;;;;;9.57;3.13;;;8.90;61.80;;;;;;5020524;28;20265;-85
2022/02/21 09:42:44;;;;;;;9.15;2.33;;;8.70;62.50;;;;;;5003195;28;20306;-86
2022/02/21 09:45:09;;;;;;;17.92;2.80;;;8.70;62.60;;;;;;5006155;28;20183;-86
2022/02/21 09:47:35;;;;;;;6.63;2.93;;;8.70;63.10;;;;;;5006689;28;20179;-86
2022/02/21 09:50:03;;;;;;;19.17;2.77;;;8.60;63.20;;;;;;5009227;28;20170;-87
2022/02/21 09:52:29;;;;;;;8.30;2.80;;;8.70;65.10;;;;;;5000750;28;20437;-87
2022/02/21 09:54:56;;;;;;;10.30;2.73;;;8.60;64.50;;;;;;5018374;28;20228;-86
2022/02/21 09:57:23;;;;;;;15.88;3.60;;;8.50;65.30;;;;;;5000500;28;20946;-87
2022/02/21 09:59:49;;;;;;;12.10;2.30;;;8.50;66.30;;;;;;4999969;28;20686;-86
2022/02/21 10:02:19;;;;;;;17.33;3.57;;;8.50;65.80;;;;;;4999681;28;20210;-86
2022/02/21 10:04:45;;;;;;;16.25;3.60;;;8.50;65.80;;;;;;4998921;28;20189;-86
2022/02/21 10:07:11;;;;;;;10.98;3.08;;;8.40;65.70;;;;;;4999573;28;20297;-86
2022/02/21 10:09:40;;;;;;;22.03;3.70;;;8.40;65.70;;;;;;4999009;28;20206;-86
2022/02/21 10:12:06;;;;;;;22.50;4.35;;;8.50;65.90;;;;;;4999711;28;20425;-86
2022/02/21 10:14:36;;;;;;;20.23;3.22;;;8.50;65.70;;;;;;5013647;28;20171;-86
2022/02/21 10:17:03;;;;;;;14.95;5.13;;;8.50;65.50;;;;;;4998059;28;20159;-86
2022/02/21 10:19:30;;;;;;;13.63;2.63;;;8.50;65.80;;;;;;4996404;28;20274;-86
2022/02/21 10:22:01;;;;;;;18.52;3.10;;;8.60;65.80;;;;;;4998846;28;20745;-86
2022/02/21 10:24:41;;;;;;;9.65;2.55;;;8.60;65.50;;;;;;5015829;28;20182;-85
2022/02/21 10:27:09;;;;;;;17.55;3.58;;;8.60;66.10;;;;;;4999784;28;20297;-87
2022/02/21 10:29:53;;;;;;;20.10;4.00;;;8.60;66.60;;;;;;4999935;28;20198;-87
2022/02/21 10:32:25;;;;;;;14.55;3.00;;;8.60;67.10;;;;;;4982305;28;20206;-86
2022/02/21 10:34:53;;;;;;;17.40;3.13;;;8.60;67.70;;;;;;5008178;28;20174;-86
2022/02/21 10:37:25;;;;;;;28.95;4.75;;;8.50;69.00;;;;;;5013215;28;20194;-86
2022/02/21 10:40:27;;;;;;;11.95;3.40;;;8.40;69.70;;;;;;4984578;28;20179;-85
2022/02/21 10:43:10;;;;;;;24.67;4.30;;;8.30;70.70;;;;;;4986177;28;20256;-86
2022/02/21 10:45:38;;;;;;;9.30;3.75;;;8.20;71.50;;;;;;4999690;28;20202;-85
2022/02/21 10:48:05;;;;;;;36.45;6.53;;;8.20;72.40;;;;;;5003203;28;20316;-85
2022/02/21 10:50:39;;;;;;;13.52;3.05;;;8.20;73.10;;;;;;5000722;28;20213;-86
2022/02/21 10:53:12;;;;;;;12.68;3.38;;;8.10;74.00;;;;;;4983484;28;20208;-87
2022/02/21 10:55:40;;;;;;;18.40;3.55;;;8.00;74.60;;;;;;4999154;28;20750;-87
2022/02/21 10:58:20;;;;;;;14.93;4.35;;;7.90;75.50;;;;;;4998969;28;20185;-87
2022/02/21 11:00:50;;;;;;;20.60;3.67;;;8.00;76.00;;;;;;5016156;28;20175;-87
2022/02/21 11:03:18;;;;;;;17.05;3.88;;;7.90;76.80;;;;;;5016716;28;20209;-86
2022/02/21 11:05:46;;;;;;;17.65;3.92;;;7.70;77.20;;;;;;5019813;28;20229;-86
2022/02/21 11:08:12;;;;;;;19.58;3.75;;;7.70;77.80;;;;;;5019645;28;20178;-87
2022/02/21 11:10:40;;;;;;;17.70;3.70;;;7.80;78.10;;;;;;5018497;28;20174;-87
2022/02/21 11:13:06;;;;;;;18.27;4.25;;;7.70;79.10;;;;;;5018655;28;20194;-87
2022/02/21 11:15:32;;;;;;;21.42;4.28;;;7.70;79.70;;;;;;5008424;28;20182;-86
2022/02/21 11:18:00;;;;;;;18.20;4.60;;;7.60;79.80;;;;;;4999605;28;20571;-87
2022/02/21 11:20:26;;;;;;;29.00;4.82;;;7.70;80.40;;;;;;4999272;28;20706;-86
2022/02/21 11:22:52;;;;;;;21.92;3.38;;;7.70;80.40;;;;;;4999262;28;20203;-87
2022/02/21 11:25:56;;;;;;;12.00;4.03;;;7.70;80.20;;;;;;5015253;28;20198;-86
2022/02/21 11:28:37;;;;;;;18.80;4.50;;;7.80;80.40;;;;;;4998689;28;20179;-86
2022/02/21 11:31:06;;;;;;;24.02;4.55;;;7.80;80.70;;;;;;4998070;28;20265;-87
2022/02/21 11:33:32;;;;;;;29.40;4.57;;;7.90;81.00;;;;;;4999061;28;20190;-87
2022/02/21 11:36:18;;;;;;;27.73;5.43;;;8.00;81.00;;;;;;4999631;28;20191;-87
2022/02/21 11:38:44;;;;;;;19.45;5.30;;;7.90;81.00;;;;;;4999668;28;20178;-86
2022/02/21 11:41:12;;;;;;;20.70;5.33;;;7.90;81.40;;;;;;5018584;28;20186;-86
2022/02/21 11:43:41;;;;;;;20.50;5.13;;;8.00;81.80;;;;;;5001227;28;20890;-87
2022/02/21 11:46:19;;;;;;;13.30;4.15;;;8.10;82.10;;;;;;4999773;28;20206;-86
2022/02/21 11:49:06;;;;;;;20.48;4.22;;;8.10;81.80;;;;;;4977775;28;20227;-87
2022/02/21 11:51:41;;;;;;;22.83;4.03;;;8.20;81.60;;;;;;4999084;28;20174;-87
2022/02/21 11:54:13;;;;;;;23.52;4.85;;;8.10;81.70;;;;;;5010175;28;20194;-87
2022/02/21 11:56:48;;;;;;;17.90;5.10;;;8.20;82.10;;;;;;4998970;28;20185;-86
2022/02/21 11:59:22;;;;;;;24.35;4.70;;;8.00;82.30;;;;;;5015710;28;20178;-87
2022/02/21 12:02:15;;;;;;;32.05;6.63;;;8.10;82.60;;;;;;4998427;28;20186;-87
2022/02/21 12:04:55;;;;;;;19.88;5.45;;;8.30;82.80;;;;;;4983546;28;20186;-86
2022/02/21 12:07:38;;;;;;;22.70;3.80;;;8.30;82.40;;;;;;4983582;28;20340;-86
2022/02/21 12:10:14;;;;;;;17.15;5.07;;;8.40;82.40;;;;;;4999425;28;20600;-86
2022/02/21 12:12:59;;;;;;;26.98;5.78;;;8.40;81.90;;;;;;5004450;28;20225;-86
2022/02/21 12:15:30;;;;;;;18.77;4.30;;;8.50;81.90;;;;;;5012683;28;20214;-85
2022/02/21 12:18:08;;;;;;;20.95;4.82;;;8.60;81.50;;;;;;4996163;28;20222;-84
2022/02/21 12:20:42;;;;;;;11.88;3.15;;;8.70;81.20;;;;;;5001943;28;20217;-84
2022/02/21 12:23:15;;;;;;;21.45;4.78;;;8.80;80.50;;;;;;5008835;28;20253;-86
2022/02/21 12:25:42;;;;;;;21.52;5.25;;;8.80;80.10;;;;;;5013013;28;20245;-86
2022/02/21 12:28:34;;;;;;;25.25;6.93;;;8.80;79.40;;;;;;5022123;28;20304;-86
2022/02/21 12:31:00;;;;;;;20.83;3.75;;;8.90;79.50;;;;;;4997247;28;20209;-86
2022/02/21 12:33:27;;;;;;;21.63;5.10;;;8.80;80.00;;;;;;5019801;28;20202;-86
2022/02/21 12:35:58;;;;;;;15.27;3.95;;;8.70;81.10;;;;;;5004125;28;20427;-87
2022/02/21 12:38:38;;;;;;;23.27;4.95;;;8.60;81.30;;;;;;5004891;28;20595;-87
2022/02/21 12:41:07;;;;;;;20.95;5.63;;;8.60;81.70;;;;;;5022424;28;20180;-87
2022/02/21 12:43:52;;;;;;;28.48;5.65;;;8.60;82.20;;;;;;5023668;28;20728;-87
2022/02/21 12:46:24;;;;;;;22.77;4.45;;;8.60;81.90;;;;;;5024431;28;20265;-87
2022/02/21 12:48:51;;;;;;;23.60;4.00;;;8.70;81.90;;;;;;5014495;28;20182;-86
2022/02/21 12:51:38;;;;;;;43.95;5.03;;;8.70;81.40;;;;;;5004022;28;20178;-86
2022/02/21 12:54:10;;;;;;;18.92;5.22;;;8.80;81.10;;;;;;5004271;28;20205;-87